sensor_id;sensor_type;location;lat;lon;timestamp;P1;durP1;ratioP1;P2;durP2;ratioP2
3849;SDS011;1940;51.052;13.678;2022-08-07T00:00:59;1.60;;;1.40;;
3849;SDS011;1940;51.052;13.678;2022-08-07T00:03:25;2.20;;;1.50;;
3849;SDS011;1940;51.052;13.678;2022-08-07T00:05:53;2.47;;;1.80;;
3849;SDS011;1940;51.052;13.678;2022-08-07T00:08:19;1.70;;;1.50;;
3849;SDS011;1940;51.052;13.678;2022-08-07T00:10:46;3.17;;;1.60;;
3849;SDS011;1940;51.052;13.678;2022-08-07T00:13:15;2.43;;;1.63;;
3849;SDS011;1940;51.052;13.678;2022-08-07T00:15:42;4.63;;;1.47;;
3849;SDS011;1940;51.052;13.678;2022-08-07T00:18:08;3.80;;;1.63;;
3849;SDS011;1940;51.052;13.678;2022-08-07T00:20:34;2.10;;;1.90;;
3849;SDS011;1940;51.052;13.678;2022-08-07T00:23:00;3.30;;;1.50;;
3849;SDS011;1940;51.052;13.678;2022-08-07T00:25:26;6.17;;;1.80;;
3849;SDS011;1940;51.052;13.678;2022-08-07T00:27:52;3.37;;;1.40;;
3849;SDS011;1940;51.052;13.678;2022-08-07T00:30:17;2.57;;;1.40;;
3849;SDS011;1940;51.052;13.678;2022-08-07T00:32:47;2.17;;;1.63;;
3849;SDS011;1940;51.052;13.678;2022-08-07T00:35:13;1.90;;;1.47;;
3849;SDS011;1940;51.052;13.678;2022-08-07T00:37:39;1.70;;;1.40;;
3849;SDS011;1940;51.052;13.678;2022-08-07T00:40:05;2.07;;;1.50;;
3849;SDS011;1940;51.052;13.678;2022-08-07T00:42:31;4.93;;;1.77;;
3849;SDS011;1940;51.052;13.678;2022-08-07T00:44:58;1.50;;;1.33;;
3849;SDS011;1940;51.052;13.678;2022-08-07T00:47:23;2.60;;;1.40;;
3849;SDS011;1940;51.052;13.678;2022-08-07T00:49:49;1.70;;;1.40;;
3849;SDS011;1940;51.052;13.678;2022-08-07T00:52:14;2.80;;;1.40;;
3849;SDS011;1940;51.052;13.678;2022-08-07T00:54:40;2.67;;;1.80;;
3849;SDS011;1940;51.052;13.678;2022-08-07T00:57:06;5.70;;;1.40;;
3849;SDS011;1940;51.052;13.678;2022-08-07T00:59:34;1.50;;;1.37;;
3849;SDS011;1940;51.052;13.678;2022-08-07T01:02:00;2.60;;;1.63;;
3849;SDS011;1940;51.052;13.678;2022-08-07T01:04:27;1.60;;;1.33;;
3849;SDS011;1940;51.052;13.678;2022-08-07T01:06:53;2.97;;;1.50;;
3849;SDS011;1940;51.052;13.678;2022-08-07T01:09:20;2.07;;;1.30;;
3849;SDS011;1940;51.052;13.678;2022-08-07T01:11:48;3.23;;;1.60;;
3849;SDS011;1940;51.052;13.678;2022-08-07T01:14:18;2.70;;;1.67;;
3849;SDS011;1940;51.052;13.678;2022-08-07T01:16:45;2.10;;;1.43;;
3849;SDS011;1940;51.052;13.678;2022-08-07T01:19:11;4.23;;;1.80;;
3849;SDS011;1940;51.052;13.678;2022-08-07T01:21:38;1.93;;;1.50;;
3849;SDS011;1940;51.052;13.678;2022-08-07T01:24:05;3.13;;;1.53;;
3849;SDS011;1940;51.052;13.678;2022-08-07T01:26:32;1.70;;;1.40;;
3849;SDS011;1940;51.052;13.678;2022-08-07T01:28:58;2.90;;;1.60;;
3849;SDS011;1940;51.052;13.678;2022-08-07T01:31:25;1.90;;;1.50;;
3849;SDS011;1940;51.052;13.678;2022-08-07T01:33:57;6.73;;;1.70;;
3849;SDS011;1940;51.052;13.678;2022-08-07T01:36:24;3.77;;;1.23;;
3849;SDS011;1940;51.052;13.678;2022-08-07T01:38:52;1.57;;;1.30;;
3849;SDS011;1940;51.052;13.678;2022-08-07T01:41:18;1.50;;;1.30;;
3849;SDS011;1940;51.052;13.678;2022-08-07T01:43:45;1.37;;;1.27;;
3849;SDS011;1940;51.052;13.678;2022-08-07T01:46:11;4.30;;;1.73;;
3849;SDS011;1940;51.052;13.678;2022-08-07T01:48:42;2.13;;;1.50;;
3849;SDS011;1940;51.052;13.678;2022-08-07T01:51:10;1.67;;;1.50;;
3849;SDS011;1940;51.052;13.678;2022-08-07T01:57:02;2.67;;;1.50;;
3849;SDS011;1940;51.052;13.678;2022-08-07T01:59:41;1.70;;;1.40;;
3849;SDS011;1940;51.052;13.678;2022-08-07T02:02:10;1.40;;;1.30;;
3849;SDS011;1940;51.052;13.678;2022-08-07T02:04:55;1.67;;;1.23;;
3849;SDS011;1940;51.052;13.678;2022-08-07T02:07:28;1.40;;;1.30;;
3849;SDS011;1940;51.052;13.678;2022-08-07T02:09:57;5.00;;;1.70;;
3849;SDS011;1940;51.052;13.678;2022-08-07T02:12:24;2.57;;;1.53;;
3849;SDS011;1940;51.052;13.678;2022-08-07T02:14:53;1.80;;;1.27;;
3849;SDS011;1940;51.052;13.678;2022-08-07T02:17:20;1.63;;;1.40;;
3849;SDS011;1940;51.052;13.678;2022-08-07T02:19:47;1.33;;;1.23;;
3849;SDS011;1940;51.052;13.678;2022-08-07T02:22:14;2.30;;;1.20;;
3849;SDS011;1940;51.052;13.678;2022-08-07T02:24:44;1.60;;;1.40;;
3849;SDS011;1940;51.052;13.678;2022-08-07T02:27:12;2.00;;;1.50;;
3849;SDS011;1940;51.052;13.678;2022-08-07T02:29:40;2.10;;;1.60;;
3849;SDS011;1940;51.052;13.678;2022-08-07T02:32:07;1.27;;;1.10;;
3849;SDS011;1940;51.052;13.678;2022-08-07T02:34:34;1.57;;;1.47;;
3849;SDS011;1940;51.052;13.678;2022-08-07T02:37:02;1.87;;;1.70;;
3849;SDS011;1940;51.052;13.678;2022-08-07T02:39:30;2.67;;;1.60;;
3849;SDS011;1940;51.052;13.678;2022-08-07T02:41:58;2.07;;;1.50;;
3849;SDS011;1940;51.052;13.678;2022-08-07T02:44:25;1.37;;;1.27;;
3849;SDS011;1940;51.052;13.678;2022-08-07T02:46:53;1.30;;;1.20;;
3849;SDS011;1940;51.052;13.678;2022-08-07T02:49:21;1.40;;;1.30;;
3849;SDS011;1940;51.052;13.678;2022-08-07T02:51:47;2.30;;;1.80;;
3849;SDS011;1940;51.052;13.678;2022-08-07T02:54:14;1.67;;;1.47;;
3849;SDS011;1940;51.052;13.678;2022-08-07T02:56:43;4.17;;;1.90;;
3849;SDS011;1940;51.052;13.678;2022-08-07T02:59:11;4.00;;;1.30;;
3849;SDS011;1940;51.052;13.678;2022-08-07T03:01:42;2.00;;;1.53;;
3849;SDS011;1940;51.052;13.678;2022-08-07T03:04:09;1.70;;;1.47;;
3849;SDS011;1940;51.052;13.678;2022-08-07T03:06:37;2.50;;;1.80;;
3849;SDS011;1940;51.052;13.678;2022-08-07T03:09:04;1.90;;;1.50;;
3849;SDS011;1940;51.052;13.678;2022-08-07T03:11:32;3.60;;;1.90;;
3849;SDS011;1940;51.052;13.678;2022-08-07T03:14:02;1.60;;;1.30;;
3849;SDS011;1940;51.052;13.678;2022-08-07T03:16:30;2.43;;;1.63;;
3849;SDS011;1940;51.052;13.678;2022-08-07T03:18:59;3.03;;;2.13;;
3849;SDS011;1940;51.052;13.678;2022-08-07T03:21:26;2.07;;;1.60;;
3849;SDS011;1940;51.052;13.678;2022-08-07T03:23:56;2.00;;;1.53;;
3849;SDS011;1940;51.052;13.678;2022-08-07T03:26:27;2.30;;;1.57;;
3849;SDS011;1940;51.052;13.678;2022-08-07T03:28:56;2.30;;;1.83;;
3849;SDS011;1940;51.052;13.678;2022-08-07T03:31:24;2.27;;;1.73;;
3849;SDS011;1940;51.052;13.678;2022-08-07T03:33:54;1.63;;;1.50;;
3849;SDS011;1940;51.052;13.678;2022-08-07T03:36:22;2.73;;;1.63;;
3849;SDS011;1940;51.052;13.678;2022-08-07T03:38:51;2.17;;;1.60;;
3849;SDS011;1940;51.052;13.678;2022-08-07T03:41:20;2.17;;;1.77;;
3849;SDS011;1940;51.052;13.678;2022-08-07T03:43:47;2.03;;;1.57;;
3849;SDS011;1940;51.052;13.678;2022-08-07T03:46:12;1.87;;;1.60;;
3849;SDS011;1940;51.052;13.678;2022-08-07T03:48:39;2.13;;;1.70;;
3849;SDS011;1940;51.052;13.678;2022-08-07T03:51:05;2.10;;;1.53;;
3849;SDS011;1940;51.052;13.678;2022-08-07T03:53:32;2.33;;;1.70;;
3849;SDS011;1940;51.052;13.678;2022-08-07T03:55:58;2.83;;;1.60;;
3849;SDS011;1940;51.052;13.678;2022-08-07T03:58:25;3.53;;;1.70;;
3849;SDS011;1940;51.052;13.678;2022-08-07T04:00:52;2.50;;;1.80;;
3849;SDS011;1940;51.052;13.678;2022-08-07T04:03:20;2.43;;;1.37;;
3849;SDS011;1940;51.052;13.678;2022-08-07T04:05:46;3.00;;;1.63;;
3849;SDS011;1940;51.052;13.678;2022-08-07T04:08:12;1.70;;;1.50;;
3849;SDS011;1940;51.052;13.678;2022-08-07T04:10:39;3.43;;;1.50;;
3849;SDS011;1940;51.052;13.678;2022-08-07T04:13:06;3.67;;;1.87;;
3849;SDS011;1940;51.052;13.678;2022-08-07T04:15:32;5.97;;;1.50;;
3849;SDS011;1940;51.052;13.678;2022-08-07T04:17:59;3.37;;;1.57;;
3849;SDS011;1940;51.052;13.678;2022-08-07T04:20:25;2.00;;;1.40;;
3849;SDS011;1940;51.052;13.678;2022-08-07T04:22:51;4.10;;;1.97;;
3849;SDS011;1940;51.052;13.678;2022-08-07T04:25:18;1.53;;;1.40;;
3849;SDS011;1940;51.052;13.678;2022-08-07T04:27:44;2.77;;;1.60;;
3849;SDS011;1940;51.052;13.678;2022-08-07T04:30:10;1.90;;;1.33;;
3849;SDS011;1940;51.052;13.678;2022-08-07T04:35:58;2.23;;;1.90;;
3849;SDS011;1940;51.052;13.678;2022-08-07T04:38:24;2.67;;;1.43;;
3849;SDS011;1940;51.052;13.678;2022-08-07T04:40:51;3.50;;;1.60;;
3849;SDS011;1940;51.052;13.678;2022-08-07T04:43:17;2.17;;;1.50;;
3849;SDS011;1940;51.052;13.678;2022-08-07T04:48:48;3.07;;;1.60;;
3849;SDS011;1940;51.052;13.678;2022-08-07T04:51:21;2.20;;;1.70;;
3849;SDS011;1940;51.052;13.678;2022-08-07T04:59:13;4.37;;;2.13;;
3849;SDS011;1940;51.052;13.678;2022-08-07T05:04:47;4.13;;;2.70;;
3849;SDS011;1940;51.052;13.678;2022-08-07T05:07:22;4.47;;;2.77;;
3849;SDS011;1940;51.052;13.678;2022-08-07T05:09:58;3.87;;;2.57;;
3849;SDS011;1940;51.052;13.678;2022-08-07T05:12:29;6.13;;;3.00;;
3849;SDS011;1940;51.052;13.678;2022-08-07T05:15:07;4.67;;;2.93;;
3849;SDS011;1940;51.052;13.678;2022-08-07T05:17:47;7.17;;;3.63;;
3849;SDS011;1940;51.052;13.678;2022-08-07T05:20:18;5.13;;;3.10;;
3849;SDS011;1940;51.052;13.678;2022-08-07T05:22:49;10.07;;;3.87;;
3849;SDS011;1940;51.052;13.678;2022-08-07T05:25:17;4.17;;;3.13;;
3849;SDS011;1940;51.052;13.678;2022-08-07T05:27:44;3.47;;;2.20;;
3849;SDS011;1940;51.052;13.678;2022-08-07T05:30:11;3.20;;;2.43;;
3849;SDS011;1940;51.052;13.678;2022-08-07T05:32:38;3.23;;;2.50;;
3849;SDS011;1940;51.052;13.678;2022-08-07T05:35:06;2.90;;;2.33;;
3849;SDS011;1940;51.052;13.678;2022-08-07T05:37:34;3.20;;;2.37;;
3849;SDS011;1940;51.052;13.678;2022-08-07T05:40:00;3.50;;;2.27;;
3849;SDS011;1940;51.052;13.678;2022-08-07T05:42:26;3.17;;;2.47;;
3849;SDS011;1940;51.052;13.678;2022-08-07T05:44:53;2.80;;;2.37;;
3849;SDS011;1940;51.052;13.678;2022-08-07T05:47:19;4.07;;;2.33;;
3849;SDS011;1940;51.052;13.678;2022-08-07T05:49:48;3.80;;;2.10;;
3849;SDS011;1940;51.052;13.678;2022-08-07T05:52:16;2.50;;;2.10;;
3849;SDS011;1940;51.052;13.678;2022-08-07T05:54:43;4.43;;;2.37;;
3849;SDS011;1940;51.052;13.678;2022-08-07T05:57:09;2.27;;;1.63;;
3849;SDS011;1940;51.052;13.678;2022-08-07T05:59:36;2.10;;;1.90;;
3849;SDS011;1940;51.052;13.678;2022-08-07T06:02:04;2.00;;;1.60;;
3849;SDS011;1940;51.052;13.678;2022-08-07T06:04:33;2.90;;;1.87;;
3849;SDS011;1940;51.052;13.678;2022-08-07T06:07:02;2.07;;;1.50;;
3849;SDS011;1940;51.052;13.678;2022-08-07T06:09:30;2.20;;;1.70;;
3849;SDS011;1940;51.052;13.678;2022-08-07T06:11:57;3.87;;;1.83;;
3849;SDS011;1940;51.052;13.678;2022-08-07T06:14:23;1.93;;;1.67;;
3849;SDS011;1940;51.052;13.678;2022-08-07T06:16:49;2.77;;;1.80;;
3849;SDS011;1940;51.052;13.678;2022-08-07T06:19:16;2.60;;;1.60;;
3849;SDS011;1940;51.052;13.678;2022-08-07T06:21:42;2.03;;;1.70;;
3849;SDS011;1940;51.052;13.678;2022-08-07T06:24:10;4.00;;;1.70;;
3849;SDS011;1940;51.052;13.678;2022-08-07T06:26:38;2.73;;;2.03;;
3849;SDS011;1940;51.052;13.678;2022-08-07T06:29:04;3.37;;;1.43;;
3849;SDS011;1940;51.052;13.678;2022-08-07T06:31:30;1.87;;;1.67;;
3849;SDS011;1940;51.052;13.678;2022-08-07T06:33:56;2.27;;;1.80;;
3849;SDS011;1940;51.052;13.678;2022-08-07T06:36:21;2.50;;;1.40;;
3849;SDS011;1940;51.052;13.678;2022-08-07T06:38:51;5.13;;;1.60;;
3849;SDS011;1940;51.052;13.678;2022-08-07T06:41:25;2.03;;;1.83;;
3849;SDS011;1940;51.052;13.678;2022-08-07T06:44:02;2.43;;;1.60;;
3849;SDS011;1940;51.052;13.678;2022-08-07T06:46:29;3.80;;;1.70;;
3849;SDS011;1940;51.052;13.678;2022-08-07T06:48:55;2.07;;;1.70;;
3849;SDS011;1940;51.052;13.678;2022-08-07T06:51:21;2.50;;;2.00;;
3849;SDS011;1940;51.052;13.678;2022-08-07T06:53:51;2.60;;;2.30;;
3849;SDS011;1940;51.052;13.678;2022-08-07T06:56:19;2.27;;;1.90;;
3849;SDS011;1940;51.052;13.678;2022-08-07T06:59:04;3.90;;;2.00;;
3849;SDS011;1940;51.052;13.678;2022-08-07T07:01:45;2.30;;;1.93;;
3849;SDS011;1940;51.052;13.678;2022-08-07T07:04:12;2.80;;;1.73;;
3849;SDS011;1940;51.052;13.678;2022-08-07T07:06:38;2.50;;;2.27;;
3849;SDS011;1940;51.052;13.678;2022-08-07T07:11:58;3.80;;;1.97;;
3849;SDS011;1940;51.052;13.678;2022-08-07T07:19:53;3.03;;;1.80;;
3849;SDS011;1940;51.052;13.678;2022-08-07T07:22:23;2.30;;;1.50;;
3849;SDS011;1940;51.052;13.678;2022-08-07T07:24:52;1.97;;;1.60;;
3849;SDS011;1940;51.052;13.678;2022-08-07T07:27:19;5.77;;;1.80;;
3849;SDS011;1940;51.052;13.678;2022-08-07T07:29:48;4.03;;;1.80;;
3849;SDS011;1940;51.052;13.678;2022-08-07T07:32:18;2.77;;;1.50;;
3849;SDS011;1940;51.052;13.678;2022-08-07T07:34:46;2.20;;;1.40;;
3849;SDS011;1940;51.052;13.678;2022-08-07T07:37:16;1.53;;;1.43;;
3849;SDS011;1940;51.052;13.678;2022-08-07T07:39:44;1.50;;;1.33;;
3849;SDS011;1940;51.052;13.678;2022-08-07T07:42:12;4.07;;;1.60;;
3849;SDS011;1940;51.052;13.678;2022-08-07T07:44:41;1.60;;;1.50;;
3849;SDS011;1940;51.052;13.678;2022-08-07T07:47:09;2.03;;;1.40;;
3849;SDS011;1940;51.052;13.678;2022-08-07T07:49:38;6.73;;;1.60;;
3849;SDS011;1940;51.052;13.678;2022-08-07T07:52:06;1.50;;;1.40;;
3849;SDS011;1940;51.052;13.678;2022-08-07T07:54:33;3.63;;;1.80;;
3849;SDS011;1940;51.052;13.678;2022-08-07T07:57:00;1.47;;;1.30;;
3849;SDS011;1940;51.052;13.678;2022-08-07T07:59:29;3.30;;;1.50;;
3849;SDS011;1940;51.052;13.678;2022-08-07T08:01:55;3.80;;;1.17;;
3849;SDS011;1940;51.052;13.678;2022-08-07T08:04:23;1.80;;;1.40;;
3849;SDS011;1940;51.052;13.678;2022-08-07T08:06:51;1.20;;;1.10;;
3849;SDS011;1940;51.052;13.678;2022-08-07T08:09:20;1.30;;;1.20;;
3849;SDS011;1940;51.052;13.678;2022-08-07T08:11:51;3.57;;;1.30;;
3849;SDS011;1940;51.052;13.678;2022-08-07T08:14:18;1.20;;;1.10;;
3849;SDS011;1940;51.052;13.678;2022-08-07T08:16:44;1.20;;;1.10;;
3849;SDS011;1940;51.052;13.678;2022-08-07T08:19:11;1.40;;;1.30;;
3849;SDS011;1940;51.052;13.678;2022-08-07T08:21:40;1.20;;;1.10;;
3849;SDS011;1940;51.052;13.678;2022-08-07T08:24:28;1.20;;;1.10;;
3849;SDS011;1940;51.052;13.678;2022-08-07T08:27:15;1.43;;;1.13;;
3849;SDS011;1940;51.052;13.678;2022-08-07T08:29:50;1.33;;;1.00;;
3849;SDS011;1940;51.052;13.678;2022-08-07T08:32:20;1.13;;;1.03;;
3849;SDS011;1940;51.052;13.678;2022-08-07T08:34:49;1.03;;;1.00;;
3849;SDS011;1940;51.052;13.678;2022-08-07T08:37:15;1.43;;;1.00;;
3849;SDS011;1940;51.052;13.678;2022-08-07T08:39:43;1.30;;;1.20;;
3849;SDS011;1940;51.052;13.678;2022-08-07T08:45:17;1.77;;;1.20;;
3849;SDS011;1940;51.052;13.678;2022-08-07T08:48:07;5.07;;;0.87;;
3849;SDS011;1940;51.052;13.678;2022-08-07T08:50:59;0.83;;;0.83;;
3849;SDS011;1940;51.052;13.678;2022-08-07T08:53:31;1.47;;;0.90;;
3849;SDS011;1940;51.052;13.678;2022-08-07T08:56:07;2.70;;;0.83;;
3849;SDS011;1940;51.052;13.678;2022-08-07T09:01:42;1.20;;;1.10;;
3849;SDS011;1940;51.052;13.678;2022-08-07T09:07:35;2.67;;;0.97;;
3849;SDS011;1940;51.052;13.678;2022-08-07T09:10:23;1.20;;;1.10;;
3849;SDS011;1940;51.052;13.678;2022-08-07T09:13:28;0.93;;;0.90;;
3849;SDS011;1940;51.052;13.678;2022-08-07T09:16:01;1.70;;;1.10;;
3849;SDS011;1940;51.052;13.678;2022-08-07T09:21:31;0.90;;;0.90;;
3849;SDS011;1940;51.052;13.678;2022-08-07T09:27:15;1.00;;;0.90;;
3849;SDS011;1940;51.052;13.678;2022-08-07T09:29:54;1.87;;;0.90;;
3849;SDS011;1940;51.052;13.678;2022-08-07T09:32:35;1.00;;;1.00;;
3849;SDS011;1940;51.052;13.678;2022-08-07T09:38:30;0.80;;;0.80;;
3849;SDS011;1940;51.052;13.678;2022-08-07T09:47:06;1.17;;;1.07;;
3849;SDS011;1940;51.052;13.678;2022-08-07T09:50:02;0.90;;;0.90;;
3849;SDS011;1940;51.052;13.678;2022-08-07T09:52:48;0.80;;;0.80;;
3849;SDS011;1940;51.052;13.678;2022-08-07T09:55:29;2.83;;;1.10;;
3849;SDS011;1940;51.052;13.678;2022-08-07T10:03:50;1.20;;;1.10;;
3849;SDS011;1940;51.052;13.678;2022-08-07T10:06:28;2.10;;;0.97;;
3849;SDS011;1940;51.052;13.678;2022-08-07T10:12:01;1.07;;;1.07;;
3849;SDS011;1940;51.052;13.678;2022-08-07T10:28:50;2.20;;;0.80;;
3849;SDS011;1940;51.052;13.678;2022-08-07T10:34:35;2.63;;;1.10;;
3849;SDS011;1940;51.052;13.678;2022-08-07T10:37:28;1.40;;;1.00;;
3849;SDS011;1940;51.052;13.678;2022-08-07T10:45:54;1.80;;;1.00;;
3849;SDS011;1940;51.052;13.678;2022-08-07T10:48:29;0.80;;;0.80;;
3849;SDS011;1940;51.052;13.678;2022-08-07T10:51:00;0.80;;;0.80;;
3849;SDS011;1940;51.052;13.678;2022-08-07T10:53:46;0.97;;;0.97;;
3849;SDS011;1940;51.052;13.678;2022-08-07T11:01:49;3.23;;;0.97;;
3849;SDS011;1940;51.052;13.678;2022-08-07T11:09:43;1.00;;;0.80;;
3849;SDS011;1940;51.052;13.678;2022-08-07T11:12:18;2.60;;;0.80;;
3849;SDS011;1940;51.052;13.678;2022-08-07T11:14:51;4.50;;;1.00;;
3849;SDS011;1940;51.052;13.678;2022-08-07T11:17:29;0.90;;;0.90;;
3849;SDS011;1940;51.052;13.678;2022-08-07T11:20:07;0.90;;;0.90;;
3849;SDS011;1940;51.052;13.678;2022-08-07T11:22:41;2.97;;;0.87;;
3849;SDS011;1940;51.052;13.678;2022-08-07T11:25:36;0.73;;;0.70;;
3849;SDS011;1940;51.052;13.678;2022-08-07T11:30:44;0.80;;;0.80;;
3849;SDS011;1940;51.052;13.678;2022-08-07T11:36:58;1.10;;;0.87;;
3849;SDS011;1940;51.052;13.678;2022-08-07T11:39:50;1.60;;;1.00;;
3849;SDS011;1940;51.052;13.678;2022-08-07T11:45:33;3.53;;;1.00;;
3849;SDS011;1940;51.052;13.678;2022-08-07T11:48:10;1.10;;;1.00;;
3849;SDS011;1940;51.052;13.678;2022-08-07T11:56:35;1.00;;;0.90;;
3849;SDS011;1940;51.052;13.678;2022-08-07T12:01:59;1.70;;;1.30;;
3849;SDS011;1940;51.052;13.678;2022-08-07T12:04:45;3.10;;;1.60;;
3849;SDS011;1940;51.052;13.678;2022-08-07T12:13:49;1.40;;;1.10;;
3849;SDS011;1940;51.052;13.678;2022-08-07T12:16:36;1.37;;;1.13;;
3849;SDS011;1940;51.052;13.678;2022-08-07T12:19:30;1.20;;;1.00;;
3849;SDS011;1940;51.052;13.678;2022-08-07T12:22:16;1.10;;;0.97;;
3849;SDS011;1940;51.052;13.678;2022-08-07T12:25:18;1.30;;;1.20;;
3849;SDS011;1940;51.052;13.678;2022-08-07T12:28:55;1.80;;;1.20;;
3849;SDS011;1940;51.052;13.678;2022-08-07T12:31:09;1.67;;;1.07;;
3849;SDS011;1940;51.052;13.678;2022-08-07T12:34:02;1.30;;;1.10;;
3849;SDS011;1940;51.052;13.678;2022-08-07T12:36:29;1.63;;;1.00;;
3849;SDS011;1940;51.052;13.678;2022-08-07T12:38:57;3.80;;;1.17;;
3849;SDS011;1940;51.052;13.678;2022-08-07T12:41:24;8.13;;;1.10;;
3849;SDS011;1940;51.052;13.678;2022-08-07T12:43:55;1.30;;;1.17;;
3849;SDS011;1940;51.052;13.678;2022-08-07T12:46:31;1.27;;;1.17;;
3849;SDS011;1940;51.052;13.678;2022-08-07T12:57:17;1.47;;;1.30;;
3849;SDS011;1940;51.052;13.678;2022-08-07T12:59:48;2.07;;;1.00;;
3849;SDS011;1940;51.052;13.678;2022-08-07T13:18:56;3.23;;;1.10;;
3849;SDS011;1940;51.052;13.678;2022-08-07T13:21:40;1.27;;;1.17;;
3849;SDS011;1940;51.052;13.678;2022-08-07T13:29:22;2.80;;;1.47;;
3849;SDS011;1940;51.052;13.678;2022-08-07T13:34:34;2.20;;;1.20;;
3849;SDS011;1940;51.052;13.678;2022-08-07T13:39:47;1.93;;;1.20;;
3849;SDS011;1940;51.052;13.678;2022-08-07T13:42:15;7.80;;;1.30;;
3849;SDS011;1940;51.052;13.678;2022-08-07T13:44:46;1.30;;;1.20;;
3849;SDS011;1940;51.052;13.678;2022-08-07T13:47:14;1.93;;;1.10;;
3849;SDS011;1940;51.052;13.678;2022-08-07T13:49:41;1.00;;;0.90;;
3849;SDS011;1940;51.052;13.678;2022-08-07T13:52:11;1.40;;;1.30;;
3849;SDS011;1940;51.052;13.678;2022-08-07T13:54:38;3.47;;;1.10;;
3849;SDS011;1940;51.052;13.678;2022-08-07T13:57:06;1.73;;;0.90;;
3849;SDS011;1940;51.052;13.678;2022-08-07T13:59:44;2.83;;;1.30;;
3849;SDS011;1940;51.052;13.678;2022-08-07T14:02:24;1.30;;;1.20;;
3849;SDS011;1940;51.052;13.678;2022-08-07T14:05:02;3.53;;;1.13;;
3849;SDS011;1940;51.052;13.678;2022-08-07T14:07:31;1.93;;;1.00;;
3849;SDS011;1940;51.052;13.678;2022-08-07T14:10:06;4.77;;;1.20;;
3849;SDS011;1940;51.052;13.678;2022-08-07T14:12:40;1.97;;;1.10;;
3849;SDS011;1940;51.052;13.678;2022-08-07T14:18:02;5.50;;;1.17;;
3849;SDS011;1940;51.052;13.678;2022-08-07T14:20:35;1.20;;;1.10;;
3849;SDS011;1940;51.052;13.678;2022-08-07T14:23:08;2.90;;;1.33;;
3849;SDS011;1940;51.052;13.678;2022-08-07T14:25:41;1.13;;;1.00;;
3849;SDS011;1940;51.052;13.678;2022-08-07T14:28:10;1.17;;;1.00;;
3849;SDS011;1940;51.052;13.678;2022-08-07T14:30:44;2.93;;;1.37;;
3849;SDS011;1940;51.052;13.678;2022-08-07T14:33:11;12.93;;;1.53;;
3849;SDS011;1940;51.052;13.678;2022-08-07T14:35:39;2.17;;;1.20;;
3849;SDS011;1940;51.052;13.678;2022-08-07T14:38:07;1.73;;;1.07;;
3849;SDS011;1940;51.052;13.678;2022-08-07T14:40:33;1.67;;;1.00;;
3849;SDS011;1940;51.052;13.678;2022-08-07T14:43:01;1.83;;;1.10;;
3849;SDS011;1940;51.052;13.678;2022-08-07T14:45:42;1.57;;;1.43;;
3849;SDS011;1940;51.052;13.678;2022-08-07T14:48:12;1.67;;;1.00;;
3849;SDS011;1940;51.052;13.678;2022-08-07T14:50:42;3.03;;;1.13;;
3849;SDS011;1940;51.052;13.678;2022-08-07T14:53:14;4.00;;;1.20;;
3849;SDS011;1940;51.052;13.678;2022-08-07T14:55:41;1.10;;;1.00;;
3849;SDS011;1940;51.052;13.678;2022-08-07T14:58:12;2.63;;;1.00;;
3849;SDS011;1940;51.052;13.678;2022-08-07T15:00:41;1.93;;;1.37;;
3849;SDS011;1940;51.052;13.678;2022-08-07T15:03:11;1.70;;;1.10;;
3849;SDS011;1940;51.052;13.678;2022-08-07T15:05:39;1.63;;;1.00;;
3849;SDS011;1940;51.052;13.678;2022-08-07T15:08:06;2.30;;;1.20;;
3849;SDS011;1940;51.052;13.678;2022-08-07T15:10:34;1.87;;;1.10;;
3849;SDS011;1940;51.052;13.678;2022-08-07T15:13:04;1.57;;;1.00;;
3849;SDS011;1940;51.052;13.678;2022-08-07T15:15:40;1.80;;;1.30;;
3849;SDS011;1940;51.052;13.678;2022-08-07T15:18:10;1.13;;;1.03;;
3849;SDS011;1940;51.052;13.678;2022-08-07T15:20:39;2.60;;;1.23;;
3849;SDS011;1940;51.052;13.678;2022-08-07T15:23:08;1.53;;;1.00;;
3849;SDS011;1940;51.052;13.678;2022-08-07T15:25:39;1.97;;;1.10;;
3849;SDS011;1940;51.052;13.678;2022-08-07T15:28:11;1.10;;;1.00;;
3849;SDS011;1940;51.052;13.678;2022-08-07T15:30:40;2.40;;;1.10;;
3849;SDS011;1940;51.052;13.678;2022-08-07T15:33:10;1.43;;;0.90;;
3849;SDS011;1940;51.052;13.678;2022-08-07T15:35:42;2.00;;;1.37;;
3849;SDS011;1940;51.052;13.678;2022-08-07T15:38:18;1.10;;;1.00;;
3849;SDS011;1940;51.052;13.678;2022-08-07T15:40:48;1.43;;;1.00;;
3849;SDS011;1940;51.052;13.678;2022-08-07T15:43:16;1.00;;;0.90;;
3849;SDS011;1940;51.052;13.678;2022-08-07T15:45:46;1.33;;;1.23;;
3849;SDS011;1940;51.052;13.678;2022-08-07T15:48:30;1.10;;;1.00;;
3849;SDS011;1940;51.052;13.678;2022-08-07T15:51:04;2.10;;;1.27;;
3849;SDS011;1940;51.052;13.678;2022-08-07T15:53:32;1.50;;;1.20;;
3849;SDS011;1940;51.052;13.678;2022-08-07T15:56:03;1.70;;;1.30;;
3849;SDS011;1940;51.052;13.678;2022-08-07T16:01:06;1.30;;;1.00;;
3849;SDS011;1940;51.052;13.678;2022-08-07T16:03:40;3.10;;;1.60;;
3849;SDS011;1940;51.052;13.678;2022-08-07T16:06:09;1.10;;;1.00;;
3849;SDS011;1940;51.052;13.678;2022-08-07T16:08:39;2.20;;;1.30;;
3849;SDS011;1940;51.052;13.678;2022-08-07T16:11:10;2.00;;;1.00;;
3849;SDS011;1940;51.052;13.678;2022-08-07T16:14:32;1.30;;;1.20;;
3849;SDS011;1940;51.052;13.678;2022-08-07T16:31:16;1.60;;;1.20;;
3849;SDS011;1940;51.052;13.678;2022-08-07T16:33:57;1.57;;;1.13;;
3849;SDS011;1940;51.052;13.678;2022-08-07T16:39:24;1.63;;;1.20;;
3849;SDS011;1940;51.052;13.678;2022-08-07T16:47:30;1.90;;;1.20;;
3849;SDS011;1940;51.052;13.678;2022-08-07T16:56:09;1.97;;;1.10;;
3849;SDS011;1940;51.052;13.678;2022-08-07T16:58:54;2.70;;;1.20;;
3849;SDS011;1940;51.052;13.678;2022-08-07T17:07:22;1.97;;;1.30;;
3849;SDS011;1940;51.052;13.678;2022-08-07T17:10:05;1.70;;;1.30;;
3849;SDS011;1940;51.052;13.678;2022-08-07T17:12:47;1.37;;;1.07;;
3849;SDS011;1940;51.052;13.678;2022-08-07T17:18:17;1.47;;;1.20;;
3849;SDS011;1940;51.052;13.678;2022-08-07T17:21:09;1.17;;;1.07;;
3849;SDS011;1940;51.052;13.678;2022-08-07T17:23:42;2.30;;;1.10;;
3849;SDS011;1940;51.052;13.678;2022-08-07T17:26:18;2.77;;;1.20;;
3849;SDS011;1940;51.052;13.678;2022-08-07T17:34:03;2.70;;;1.33;;
3849;SDS011;1940;51.052;13.678;2022-08-07T17:37:00;1.90;;;1.20;;
3849;SDS011;1940;51.052;13.678;2022-08-07T17:39:54;1.40;;;1.27;;
3849;SDS011;1940;51.052;13.678;2022-08-07T17:45:00;4.40;;;1.20;;
3849;SDS011;1940;51.052;13.678;2022-08-07T17:50:18;2.13;;;1.60;;
3849;SDS011;1940;51.052;13.678;2022-08-07T17:52:51;3.07;;;1.50;;
3849;SDS011;1940;51.052;13.678;2022-08-07T17:55:26;1.53;;;1.30;;
3849;SDS011;1940;51.052;13.678;2022-08-07T17:58:06;3.20;;;1.60;;
3849;SDS011;1940;51.052;13.678;2022-08-07T18:00:37;2.30;;;1.57;;
3849;SDS011;1940;51.052;13.678;2022-08-07T18:03:14;1.90;;;1.33;;
3849;SDS011;1940;51.052;13.678;2022-08-07T18:11:06;2.03;;;1.50;;
3849;SDS011;1940;51.052;13.678;2022-08-07T18:13:44;1.53;;;1.40;;
3849;SDS011;1940;51.052;13.678;2022-08-07T18:19:42;2.33;;;1.73;;
3849;SDS011;1940;51.052;13.678;2022-08-07T18:21:43;2.37;;;1.57;;
3849;SDS011;1940;51.052;13.678;2022-08-07T18:29:25;3.03;;;2.00;;
3849;SDS011;1940;51.052;13.678;2022-08-07T18:38:23;2.53;;;1.60;;
3849;SDS011;1940;51.052;13.678;2022-08-07T18:50:09;3.60;;;1.87;;
3849;SDS011;1940;51.052;13.678;2022-08-07T18:59:00;1.63;;;1.53;;
3849;SDS011;1940;51.052;13.678;2022-08-07T19:01:42;7.27;;;2.20;;
3849;SDS011;1940;51.052;13.678;2022-08-07T19:04:31;2.93;;;1.93;;
3849;SDS011;1940;51.052;13.678;2022-08-07T19:07:20;2.80;;;1.80;;
3849;SDS011;1940;51.052;13.678;2022-08-07T19:16:01;4.03;;;2.23;;
3849;SDS011;1940;51.052;13.678;2022-08-07T19:18:21;6.77;;;2.00;;
3849;SDS011;1940;51.052;13.678;2022-08-07T19:24:00;4.47;;;1.70;;
3849;SDS011;1940;51.052;13.678;2022-08-07T19:26:34;2.10;;;1.80;;
3849;SDS011;1940;51.052;13.678;2022-08-07T19:29:03;5.37;;;2.50;;
3849;SDS011;1940;51.052;13.678;2022-08-07T19:31:38;3.30;;;2.30;;
3849;SDS011;1940;51.052;13.678;2022-08-07T19:34:10;3.97;;;1.97;;
3849;SDS011;1940;51.052;13.678;2022-08-07T19:36:39;4.30;;;2.07;;
3849;SDS011;1940;51.052;13.678;2022-08-07T19:39:07;2.63;;;1.90;;